sensor_id;sensor_type;location;lat;lon;timestamp;temperature;humidity
36548;DHT22;22551;52.206;4.856;2024-03-08T00:03:29;5.10;99.90
36548;DHT22;22551;52.206;4.856;2024-03-08T00:09:22;3.70;99.90
36548;DHT22;22551;52.206;4.856;2024-03-08T00:14:53;3.60;99.90
36548;DHT22;22551;52.206;4.856;2024-03-08T00:21:29;3.50;99.90
36548;DHT22;22551;52.206;4.856;2024-03-08T00:26:13;3.50;99.90
36548;DHT22;22551;52.206;4.856;2024-03-08T00:31:43;3.40;99.90
36548;DHT22;22551;52.206;4.856;2024-03-08T00:37:39;3.40;99.90
36548;DHT22;22551;52.206;4.856;2024-03-08T00:43:21;3.40;99.90
36548;DHT22;22551;52.206;4.856;2024-03-08T00:55:25;3.30;99.90
36548;DHT22;22551;52.206;4.856;2024-03-08T01:01:08;3.30;99.90
36548;DHT22;22551;52.206;4.856;2024-03-08T01:06:28;3.30;99.90
36548;DHT22;22551;52.206;4.856;2024-03-08T01:11:54;3.30;99.90
36548;DHT22;22551;52.206;4.856;2024-03-08T01:17:28;3.20;99.90
36548;DHT22;22551;52.206;4.856;2024-03-08T01:22:46;3.20;99.90
36548;DHT22;22551;52.206;4.856;2024-03-08T01:28:14;3.30;99.90
36548;DHT22;22551;52.206;4.856;2024-03-08T01:33:29;3.20;99.90
36548;DHT22;22551;52.206;4.856;2024-03-08T01:38:42;3.20;99.90
36548;DHT22;22551;52.206;4.856;2024-03-08T01:44:09;3.10;99.90
36548;DHT22;22551;52.206;4.856;2024-03-08T01:49:52;3.00;99.90
36548;DHT22;22551;52.206;4.856;2024-03-08T01:55:07;3.00;99.90
36548;DHT22;22551;52.206;4.856;2024-03-08T02:00:18;2.90;99.90
36548;DHT22;22551;52.206;4.856;2024-03-08T02:05:36;2.90;99.90
36548;DHT22;22551;52.206;4.856;2024-03-08T02:10:43;2.90;99.90
36548;DHT22;22551;52.206;4.856;2024-03-08T02:22:25;2.70;99.90
36548;DHT22;22551;52.206;4.856;2024-03-08T02:27:34;2.70;99.90
36548;DHT22;22551;52.206;4.856;2024-03-08T02:32:54;2.70;99.90
36548;DHT22;22551;52.206;4.856;2024-03-08T02:38:15;2.60;99.90
36548;DHT22;22551;52.206;4.856;2024-03-08T02:43:41;2.60;99.90
36548;DHT22;22551;52.206;4.856;2024-03-08T02:49:14;2.50;99.90
36548;DHT22;22551;52.206;4.856;2024-03-08T02:54:30;2.50;99.90
36548;DHT22;22551;52.206;4.856;2024-03-08T02:59:48;2.40;99.90
36548;DHT22;22551;52.206;4.856;2024-03-08T03:04:59;2.40;99.90
36548;DHT22;22551;52.206;4.856;2024-03-08T03:10:25;2.40;99.90
36548;DHT22;22551;52.206;4.856;2024-03-08T03:15:57;2.40;99.90
36548;DHT22;22551;52.206;4.856;2024-03-08T03:21:49;2.40;99.90
36548;DHT22;22551;52.206;4.856;2024-03-08T03:27:22;2.20;99.90
36548;DHT22;22551;52.206;4.856;2024-03-08T03:32:35;2.20;99.90
36548;DHT22;22551;52.206;4.856;2024-03-08T03:38:29;2.30;99.90
36548;DHT22;22551;52.206;4.856;2024-03-08T03:50:20;2.10;99.90
36548;DHT22;22551;52.206;4.856;2024-03-08T03:55:28;2.10;99.90
36548;DHT22;22551;52.206;4.856;2024-03-08T04:00:35;2.00;99.90
36548;DHT22;22551;52.206;4.856;2024-03-08T04:05:47;2.00;99.90
36548;DHT22;22551;52.206;4.856;2024-03-08T04:10:58;2.00;99.90
36548;DHT22;22551;52.206;4.856;2024-03-08T04:16:04;1.90;99.90
36548;DHT22;22551;52.206;4.856;2024-03-08T04:21:16;1.90;99.90
36548;DHT22;22551;52.206;4.856;2024-03-08T04:26:19;1.90;99.90
36548;DHT22;22551;52.206;4.856;2024-03-08T04:31:23;1.90;99.90
36548;DHT22;22551;52.206;4.856;2024-03-08T04:36:30;1.80;99.90
36548;DHT22;22551;52.206;4.856;2024-03-08T04:41:35;1.80;99.90
36548;DHT22;22551;52.206;4.856;2024-03-08T04:47:07;1.80;99.90
36548;DHT22;22551;52.206;4.856;2024-03-08T04:52:23;1.80;99.90
36548;DHT22;22551;52.206;4.856;2024-03-08T04:57:26;1.70;99.90
36548;DHT22;22551;52.206;4.856;2024-03-08T05:02:33;1.70;99.90
36548;DHT22;22551;52.206;4.856;2024-03-08T05:07:35;1.70;99.90
36548;DHT22;22551;52.206;4.856;2024-03-08T05:12:37;1.70;99.90
36548;DHT22;22551;52.206;4.856;2024-03-08T05:17:44;1.60;99.90
36548;DHT22;22551;52.206;4.856;2024-03-08T05:22:46;1.60;99.90
36548;DHT22;22551;52.206;4.856;2024-03-08T05:27:48;1.70;99.90
36548;DHT22;22551;52.206;4.856;2024-03-08T05:32:52;1.70;99.90
36548;DHT22;22551;52.206;4.856;2024-03-08T05:37:55;1.70;99.90
36548;DHT22;22551;52.206;4.856;2024-03-08T05:42:59;1.60;99.90
36548;DHT22;22551;52.206;4.856;2024-03-08T05:48:09;1.70;99.90
36548;DHT22;22551;52.206;4.856;2024-03-08T05:53:13;1.70;99.90
36548;DHT22;22551;52.206;4.856;2024-03-08T05:58:15;1.70;99.90
36548;DHT22;22551;52.206;4.856;2024-03-08T06:08:59;1.70;99.90
36548;DHT22;22551;52.206;4.856;2024-03-08T06:14:09;1.70;99.90
36548;DHT22;22551;52.206;4.856;2024-03-08T06:19:13;1.70;99.90
36548;DHT22;22551;52.206;4.856;2024-03-08T06:24:21;1.60;99.90
36548;DHT22;22551;52.206;4.856;2024-03-08T06:29:23;1.70;99.90
36548;DHT22;22551;52.206;4.856;2024-03-08T06:34:27;1.70;99.90
36548;DHT22;22551;52.206;4.856;2024-03-08T06:39:34;1.70;99.90
36548;DHT22;22551;52.206;4.856;2024-03-08T06:44:40;1.70;99.90
36548;DHT22;22551;52.206;4.856;2024-03-08T06:49:56;1.70;99.90
36548;DHT22;22551;52.206;4.856;2024-03-08T06:55:05;1.70;99.90
36548;DHT22;22551;52.206;4.856;2024-03-08T07:00:12;1.80;99.90
36548;DHT22;22551;52.206;4.856;2024-03-08T07:05:20;1.90;99.90
36548;DHT22;22551;52.206;4.856;2024-03-08T07:10:26;1.90;99.90
36548;DHT22;22551;52.206;4.856;2024-03-08T07:15:29;2.00;99.90
36548;DHT22;22551;52.206;4.856;2024-03-08T07:20:32;2.10;99.90
36548;DHT22;22551;52.206;4.856;2024-03-08T07:25:35;2.20;99.90
36548;DHT22;22551;52.206;4.856;2024-03-08T07:30:39;2.30;99.90
36548;DHT22;22551;52.206;4.856;2024-03-08T07:36:03;2.30;99.90
36548;DHT22;22551;52.206;4.856;2024-03-08T07:41:05;2.40;99.90
36548;DHT22;22551;52.206;4.856;2024-03-08T07:46:09;2.50;99.90
36548;DHT22;22551;52.206;4.856;2024-03-08T07:51:12;2.60;99.90
36548;DHT22;22551;52.206;4.856;2024-03-08T07:56:18;2.70;99.90
36548;DHT22;22551;52.206;4.856;2024-03-08T08:01:22;2.80;99.90
36548;DHT22;22551;52.206;4.856;2024-03-08T08:06:25;2.80;99.90
36548;DHT22;22551;52.206;4.856;2024-03-08T08:11:30;2.90;99.90
36548;DHT22;22551;52.206;4.856;2024-03-08T08:16:33;3.10;99.90
36548;DHT22;22551;52.206;4.856;2024-03-08T08:21:36;3.20;99.90
36548;DHT22;22551;52.206;4.856;2024-03-08T08:26:38;3.30;99.90
36548;DHT22;22551;52.206;4.856;2024-03-08T08:31:41;3.30;99.90
36548;DHT22;22551;52.206;4.856;2024-03-08T08:36:45;3.50;99.90
36548;DHT22;22551;52.206;4.856;2024-03-08T08:41:47;3.60;99.90
36548;DHT22;22551;52.206;4.856;2024-03-08T08:46:57;3.70;99.90
36548;DHT22;22551;52.206;4.856;2024-03-08T08:52:01;3.80;99.90
36548;DHT22;22551;52.206;4.856;2024-03-08T08:57:04;4.00;99.90
36548;DHT22;22551;52.206;4.856;2024-03-08T09:02:08;4.10;99.90
36548;DHT22;22551;52.206;4.856;2024-03-08T09:07:11;4.20;99.90
36548;DHT22;22551;52.206;4.856;2024-03-08T09:12:14;4.40;99.90
36548;DHT22;22551;52.206;4.856;2024-03-08T09:17:16;4.70;99.90
36548;DHT22;22551;52.206;4.856;2024-03-08T09:22:22;4.90;99.90
36548;DHT22;22551;52.206;4.856;2024-03-08T09:27:25;5.20;99.90
36548;DHT22;22551;52.206;4.856;2024-03-08T09:32:27;5.40;99.90
36548;DHT22;22551;52.206;4.856;2024-03-08T09:37:32;5.60;99.90
36548;DHT22;22551;52.206;4.856;2024-03-08T09:42:34;5.90;99.90
36548;DHT22;22551;52.206;4.856;2024-03-08T09:47:39;6.10;99.90
36548;DHT22;22551;52.206;4.856;2024-03-08T09:52:46;6.50;99.90
36548;DHT22;22551;52.206;4.856;2024-03-08T09:57:51;6.70;99.90
36548;DHT22;22551;52.206;4.856;2024-03-08T10:03:11;6.90;99.90
36548;DHT22;22551;52.206;4.856;2024-03-08T10:08:16;7.20;99.90
36548;DHT22;22551;52.206;4.856;2024-03-08T10:13:18;7.40;99.90
36548;DHT22;22551;52.206;4.856;2024-03-08T10:18:21;7.50;99.90
36548;DHT22;22551;52.206;4.856;2024-03-08T10:23:27;7.60;99.90
36548;DHT22;22551;52.206;4.856;2024-03-08T10:28:37;7.90;99.90
36548;DHT22;22551;52.206;4.856;2024-03-08T10:33:42;8.10;99.90
36548;DHT22;22551;52.206;4.856;2024-03-08T10:38:51;8.40;99.90
36548;DHT22;22551;52.206;4.856;2024-03-08T10:44:11;8.20;99.90
36548;DHT22;22551;52.206;4.856;2024-03-08T10:49:25;8.30;99.90
36548;DHT22;22551;52.206;4.856;2024-03-08T11:00:42;8.50;99.90
36548;DHT22;22551;52.206;4.856;2024-03-08T11:05:44;8.50;99.90
36548;DHT22;22551;52.206;4.856;2024-03-08T11:10:51;8.70;99.90
36548;DHT22;22551;52.206;4.856;2024-03-08T11:15:56;8.80;99.90
36548;DHT22;22551;52.206;4.856;2024-03-08T11:21:02;9.00;99.90
36548;DHT22;22551;52.206;4.856;2024-03-08T11:26:18;9.10;99.90
36548;DHT22;22551;52.206;4.856;2024-03-08T11:31:25;9.40;99.90
36548;DHT22;22551;52.206;4.856;2024-03-08T11:36:28;9.20;99.90
36548;DHT22;22551;52.206;4.856;2024-03-08T11:41:32;9.60;99.90
36548;DHT22;22551;52.206;4.856;2024-03-08T11:46:39;9.80;99.90
36548;DHT22;22551;52.206;4.856;2024-03-08T11:51:47;9.80;99.90
36548;DHT22;22551;52.206;4.856;2024-03-08T11:56:53;9.80;99.90
36548;DHT22;22551;52.206;4.856;2024-03-08T12:02:02;9.90;99.90
36548;DHT22;22551;52.206;4.856;2024-03-08T12:07:05;10.00;99.90
36548;DHT22;22551;52.206;4.856;2024-03-08T12:12:10;10.50;99.90
36548;DHT22;22551;52.206;4.856;2024-03-08T12:17:14;10.60;99.90
36548;DHT22;22551;52.206;4.856;2024-03-08T12:22:16;10.70;99.90
36548;DHT22;22551;52.206;4.856;2024-03-08T12:27:18;10.80;99.90
36548;DHT22;22551;52.206;4.856;2024-03-08T12:32:22;10.90;99.90
36548;DHT22;22551;52.206;4.856;2024-03-08T12:37:25;11.00;99.90
36548;DHT22;22551;52.206;4.856;2024-03-08T12:42:28;11.00;99.90
36548;DHT22;22551;52.206;4.856;2024-03-08T12:47:38;11.10;99.90
36548;DHT22;22551;52.206;4.856;2024-03-08T12:52:42;11.20;99.90
36548;DHT22;22551;52.206;4.856;2024-03-08T12:57:45;11.10;99.90
36548;DHT22;22551;52.206;4.856;2024-03-08T13:02:49;11.30;99.90
36548;DHT22;22551;52.206;4.856;2024-03-08T13:07:53;11.60;99.90
36548;DHT22;22551;52.206;4.856;2024-03-08T13:12:58;11.70;99.90
36548;DHT22;22551;52.206;4.856;2024-03-08T13:18:02;11.70;99.90
36548;DHT22;22551;52.206;4.856;2024-03-08T13:23:06;11.80;99.90
36548;DHT22;22551;52.206;4.856;2024-03-08T13:28:09;12.10;99.90
36548;DHT22;22551;52.206;4.856;2024-03-08T13:33:12;12.00;99.90
36548;DHT22;22551;52.206;4.856;2024-03-08T13:38:15;11.70;99.90
36548;DHT22;22551;52.206;4.856;2024-03-08T13:43:20;11.80;99.90
36548;DHT22;22551;52.206;4.856;2024-03-08T13:48:24;12.20;99.90
36548;DHT22;22551;52.206;4.856;2024-03-08T13:53:26;12.10;99.90
36548;DHT22;22551;52.206;4.856;2024-03-08T13:58:30;11.80;99.90
36548;DHT22;22551;52.206;4.856;2024-03-08T14:03:34;11.90;99.90
36548;DHT22;22551;52.206;4.856;2024-03-08T14:08:36;12.00;99.90
36548;DHT22;22551;52.206;4.856;2024-03-08T14:13:42;11.90;99.90
36548;DHT22;22551;52.206;4.856;2024-03-08T14:18:47;11.80;99.90
36548;DHT22;22551;52.206;4.856;2024-03-08T14:24:04;11.80;99.90
36548;DHT22;22551;52.206;4.856;2024-03-08T14:29:12;11.90;99.90
36548;DHT22;22551;52.206;4.856;2024-03-08T14:34:16;11.80;99.90
36548;DHT22;22551;52.206;4.856;2024-03-08T14:39:18;11.50;99.90
36548;DHT22;22551;52.206;4.856;2024-03-08T14:44:24;11.70;99.90
36548;DHT22;22551;52.206;4.856;2024-03-08T14:49:28;11.40;99.90
36548;DHT22;22551;52.206;4.856;2024-03-08T14:54:30;11.30;99.90
36548;DHT22;22551;52.206;4.856;2024-03-08T14:59:32;11.40;99.90
36548;DHT22;22551;52.206;4.856;2024-03-08T15:04:36;11.50;99.90
36548;DHT22;22551;52.206;4.856;2024-03-08T15:09:41;11.40;99.90
36548;DHT22;22551;52.206;4.856;2024-03-08T15:14:44;11.30;99.90
36548;DHT22;22551;52.206;4.856;2024-03-08T15:19:50;11.30;99.90
36548;DHT22;22551;52.206;4.856;2024-03-08T15:25:27;11.30;99.90
36548;DHT22;22551;52.206;4.856;2024-03-08T15:30:42;11.30;99.90
36548;DHT22;22551;52.206;4.856;2024-03-08T15:36:10;11.10;99.90
36548;DHT22;22551;52.206;4.856;2024-03-08T15:41:18;11.10;99.90
36548;DHT22;22551;52.206;4.856;2024-03-08T15:46:21;11.00;99.90
36548;DHT22;22551;52.206;4.856;2024-03-08T15:51:26;10.70;99.90
36548;DHT22;22551;52.206;4.856;2024-03-08T15:56:48;10.80;99.90
36548;DHT22;22551;52.206;4.856;2024-03-08T16:01:56;10.70;99.90
36548;DHT22;22551;52.206;4.856;2024-03-08T16:07:07;10.60;99.90
36548;DHT22;22551;52.206;4.856;2024-03-08T16:12:17;10.50;99.90
36548;DHT22;22551;52.206;4.856;2024-03-08T16:17:37;10.40;99.90
36548;DHT22;22551;52.206;4.856;2024-03-08T16:22:46;10.20;99.90
36548;DHT22;22551;52.206;4.856;2024-03-08T16:27:52;10.00;99.90
36548;DHT22;22551;52.206;4.856;2024-03-08T16:32:59;10.00;99.90
36548;DHT22;22551;52.206;4.856;2024-03-08T16:38:11;9.80;99.90
36548;DHT22;22551;52.206;4.856;2024-03-08T16:43:17;9.60;99.90
36548;DHT22;22551;52.206;4.856;2024-03-08T16:48:29;9.60;99.90
36548;DHT22;22551;52.206;4.856;2024-03-08T16:53:40;9.40;99.90
36548;DHT22;22551;52.206;4.856;2024-03-08T16:58:51;9.30;99.90
36548;DHT22;22551;52.206;4.856;2024-03-08T17:04:25;9.20;99.90
36548;DHT22;22551;52.206;4.856;2024-03-08T17:09:48;9.00;99.90
36548;DHT22;22551;52.206;4.856;2024-03-08T17:15:01;8.90;99.90
36548;DHT22;22551;52.206;4.856;2024-03-08T17:20:16;8.80;99.90
36548;DHT22;22551;52.206;4.856;2024-03-08T17:25:27;8.70;99.90
36548;DHT22;22551;52.206;4.856;2024-03-08T17:30:44;8.60;99.90
36548;DHT22;22551;52.206;4.856;2024-03-08T17:36:09;8.50;99.90
36548;DHT22;22551;52.206;4.856;2024-03-08T17:41:21;8.40;99.90
36548;DHT22;22551;52.206;4.856;2024-03-08T17:46:28;8.30;99.90
36548;DHT22;22551;52.206;4.856;2024-03-08T17:51:37;8.10;99.90
36548;DHT22;22551;52.206;4.856;2024-03-08T17:57:11;8.00;99.90
36548;DHT22;22551;52.206;4.856;2024-03-08T18:02:30;7.90;99.90
36548;DHT22;22551;52.206;4.856;2024-03-08T18:07:41;7.80;99.90
36548;DHT22;22551;52.206;4.856;2024-03-08T18:12:48;7.80;99.90
36548;DHT22;22551;52.206;4.856;2024-03-08T18:17:59;7.70;99.90
36548;DHT22;22551;52.206;4.856;2024-03-08T18:23:04;7.70;99.90
36548;DHT22;22551;52.206;4.856;2024-03-08T18:28:19;7.60;99.90
36548;DHT22;22551;52.206;4.856;2024-03-08T18:33:29;7.60;99.90
36548;DHT22;22551;52.206;4.856;2024-03-08T18:38:37;7.50;99.90
36548;DHT22;22551;52.206;4.856;2024-03-08T18:43:53;7.40;99.90
36548;DHT22;22551;52.206;4.856;2024-03-08T18:49:00;7.30;99.90
36548;DHT22;22551;52.206;4.856;2024-03-08T18:54:21;7.30;99.90
36548;DHT22;22551;52.206;4.856;2024-03-08T18:59:31;7.30;99.90
36548;DHT22;22551;52.206;4.856;2024-03-08T19:04:41;7.30;99.90
36548;DHT22;22551;52.206;4.856;2024-03-08T19:09:55;7.20;99.90
36548;DHT22;22551;52.206;4.856;2024-03-08T19:15:03;7.20;99.90
36548;DHT22;22551;52.206;4.856;2024-03-08T19:20:12;7.10;99.90
36548;DHT22;22551;52.206;4.856;2024-03-08T19:25:32;7.10;99.90
36548;DHT22;22551;52.206;4.856;2024-03-08T19:30:48;7.00;99.90
36548;DHT22;22551;52.206;4.856;2024-03-08T19:36:06;6.90;99.90
36548;DHT22;22551;52.206;4.856;2024-03-08T19:41:26;6.80;99.90
36548;DHT22;22551;52.206;4.856;2024-03-08T19:46:33;6.70;99.90
36548;DHT22;22551;52.206;4.856;2024-03-08T19:51:41;6.70;99.90
36548;DHT22;22551;52.206;4.856;2024-03-08T19:56:57;6.70;99.90
36548;DHT22;22551;52.206;4.856;2024-03-08T20:02:38;6.60;99.90
36548;DHT22;22551;52.206;4.856;2024-03-08T20:08:00;6.50;99.90
36548;DHT22;22551;52.206;4.856;2024-03-08T20:13:15;6.50;99.90
36548;DHT22;22551;52.206;4.856;2024-03-08T20:24:49;6.30;99.90
36548;DHT22;22551;52.206;4.856;2024-03-08T20:29:59;6.30;99.90
36548;DHT22;22551;52.206;4.856;2024-03-08T20:35:07;6.30;99.90
36548;DHT22;22551;52.206;4.856;2024-03-08T20:40:29;6.20;99.90
36548;DHT22;22551;52.206;4.856;2024-03-08T20:45:42;6.10;99.90
36548;DHT22;22551;52.206;4.856;2024-03-08T20:50:57;6.10;99.90
36548;DHT22;22551;52.206;4.856;2024-03-08T20:56:15;6.10;99.90
36548;DHT22;22551;52.206;4.856;2024-03-08T21:01:21;6.00;99.90
36548;DHT22;22551;52.206;4.856;2024-03-08T21:06:31;6.00;99.90
36548;DHT22;22551;52.206;4.856;2024-03-08T21:11:41;5.90;99.90
36548;DHT22;22551;52.206;4.856;2024-03-08T21:16:58;6.00;99.90
36548;DHT22;22551;52.206;4.856;2024-03-08T21:22:23;5.90;99.90
36548;DHT22;22551;52.206;4.856;2024-03-08T21:28:03;5.80;99.90
36548;DHT22;22551;52.206;4.856;2024-03-08T21:33:30;5.80;99.90
36548;DHT22;22551;52.206;4.856;2024-03-08T21:38:48;5.70;99.90
36548;DHT22;22551;52.206;4.856;2024-03-08T21:44:06;5.70;99.90
36548;DHT22;22551;52.206;4.856;2024-03-08T21:49:19;5.70;99.90
36548;DHT22;22551;52.206;4.856;2024-03-08T21:54:45;5.70;99.90
36548;DHT22;22551;52.206;4.856;2024-03-08T22:00:09;5.60;99.90
36548;DHT22;22551;52.206;4.856;2024-03-08T22:05:50;5.60;99.90
36548;DHT22;22551;52.206;4.856;2024-03-08T22:11:04;5.60;99.90
36548;DHT22;22551;52.206;4.856;2024-03-08T22:16:44;5.60;99.90
36548;DHT22;22551;52.206;4.856;2024-03-08T22:21:47;5.50;99.90
36548;DHT22;22551;52.206;4.856;2024-03-08T22:27:12;5.40;99.90
36548;DHT22;22551;52.206;4.856;2024-03-08T22:32:23;5.30;99.90
36548;DHT22;22551;52.206;4.856;2024-03-08T22:37:44;5.30;99.90
36548;DHT22;22551;52.206;4.856;2024-03-08T22:42:54;5.30;99.90
36548;DHT22;22551;52.206;4.856;2024-03-08T22:48:13;5.30;99.90
36548;DHT22;22551;52.206;4.856;2024-03-08T22:53:23;5.20;99.90
36548;DHT22;22551;52.206;4.856;2024-03-08T22:58:37;5.20;99.90
36548;DHT22;22551;52.206;4.856;2024-03-08T23:04:02;5.20;99.90
36548;DHT22;22551;52.206;4.856;2024-03-08T23:09:23;5.10;99.90
36548;DHT22;22551;52.206;4.856;2024-03-08T23:21:02;5.10;99.90
36548;DHT22;22551;52.206;4.856;2024-03-08T23:27:15;5.10;99.90
36548;DHT22;22551;52.206;4.856;2024-03-08T23:32:38;5.10;99.90
36548;DHT22;22551;52.206;4.856;2024-03-08T23:38:26;5.00;99.90
36548;DHT22;22551;52.206;4.856;2024-03-08T23:43:48;5.00;99.90
36548;DHT22;22551;52.206;4.856;2024-03-08T23:48:56;5.00;99.90
36548;DHT22;22551;52.206;4.856;2024-03-08T23:54:12;5.00;99.90
36548;DHT22;22551;52.206;4.856;2024-03-08T23:59:43;5.00;99.90
